Weather observations for the past three days for
Burlington Regional Airport
Imperial (Metric)
Date Time (cdt) Wind (mph) Vis. (mi.) Weather Sky Cond. Temperature (ºF) Relative Humidity Wind Chill (°F) Heat Index (°F) Pressure Precipitation (in)
Air Dwpt 6 hour altimeter (in) sea level (mb) 1 hr 3 hr 6 hr
Max. Min.
03 22:53 W 3 10.00 Fair CLR 55.9 43 62% 29.75 1007.4
03 21:53 SW 6 10.00 Fair CLR 57 43 60% 29.76 1007.7
03 20:53 SW 7 10.00 Fair CLR 59 42.1 54% 29.75 1007.5
03 19:53 SW 8 7.00 Fair CLR 62.1 43 50% 29.75 1007.4
03 18:53 W 7 9.00 Fair CLR 68 43 72 63 40% 29.75 1007.4
03 17:53 W 12 G 23 9.00 Fair CLR 70 42.1 37% 29.75 1007.3
03 16:53 W 15 10.00 Fair CLR 72 43 35% 29.76 1007.6
03 15:53 W 12 8.00 A Few Clouds FEW110 66.9 45 45% 29.78 1008.4
03 14:53 W 18 G 30 10.00 A Few Clouds FEW110 66 43 43% 29.8 1009.0
03 13:53 W 17 G 25 9.00 Partly Cloudy FEW100 SCT120 64.9 43 45% 29.8 1008.9
03 12:53 W 22 G 30 10.00 Fair and Breezy CLR 63 41 64.9 46 45% 29.81 1009.6
03 11:53 SW 25 G 35 10.00 Fair and Breezy CLR 63 39.9 43% 29.84 1010.5
03 10:53 SW 16 G 29 10.00 Fair CLR 57.9 39.9 51% 29.86 1011.2
03 09:53 SW 16 G 24 10.00 Overcast FEW055 BKN090 OVC110 55.9 39.9 55% 29.89 1012.2
03 08:53 SW 16 G 25 10.00 Overcast FEW028 BKN100 OVC120 53.1 39 59% 29.92 1013.2
03 07:53 SW 10 10.00 Overcast BKN100 OVC110 50 37.9 63% 46 29.96 1014.7
03 06:53 S 7 10.00 A Few Clouds FEW095 FEW110 46 37 46.9 42.1 71% 43 29.95 1014.4
03 05:53 SW 9 10.00 Mostly Cloudy BKN100 45 37 74% 41 29.97 1015.1
03 04:53 S 8 10.00 Fair CLR 44.1 36 73% 40 29.97 1014.9
03 03:53 SW 8 10.00 Fair CLR 45 36 71% 41 29.98 1015.5
03 02:53 SW 8 10.00 Fair CLR 45 35.1 68% 41 29.98 1015.5
03 01:53 SW 8 10.00 Fair CLR 45 35.1 68% 41 30 1016.2
03 00:53 SW 7 10.00 Fair CLR 45 35.1 57.9 44.1 68% 42 30.02 1016.7
02 23:53 SW 7 10.00 Fair CLR 46 35.1 66% 43 30.03 1017.0
02 22:53 SW 5 10.00 Fair CLR 46 35.1 66% 44 30.04 1017.3
02 21:53 SW 5 10.00 Fair CLR 48 32 54% 47 30.05 1017.7
02 20:53 SW 3 9.00 Fair CLR 48.9 34 56% 30.04 1017.6
02 19:53 W 3 10.00 Fair CLR 55 28.9 37% 30.04 1017.4
02 18:53 W 6 10.00 Fair CLR 57.9 27 59 54 31% 30.05 1017.6
02 17:53 NW 7 10.00 A Few Clouds FEW075 59 26.1 28% 30.05 1017.9
02 16:53 Vrbl 3 10.00 Fair CLR 57.9 28 32% 30.06 1018.1
02 15:53 W 9 10.00 Partly Cloudy SCT075 59 28.9 32% 30.08 1018.7
02 14:53 SW 10 10.00 A Few Clouds FEW070 55 28.9 37% 30.1 1019.4
02 13:53 S 5 10.00 Overcast OVC070 55 27 34% 30.11 1020.0
02 12:53 Calm 10.00 Mostly Cloudy BKN070 54 27 57 41 35% 30.13 1020.4
02 11:53 Vrbl 3 10.00 Partly Cloudy SCT075 52 27 38% 30.14 1020.7
02 10:53 E 8 10.00 A Few Clouds FEW042 54 30 40% 30.14 1020.9
02 09:53 Calm 10.00 Fair CLR 48.9 37.9 66% 30.14 1021.0
02 08:53 Calm 10.00 Partly Cloudy SCT080 46 37 71% 30.14 1021.0
02 07:53 E 6 10.00 Fair CLR 43 37 80% 40 30.13 1020.6
02 06:53 E 7 10.00 Overcast OVC085 41 37 43 39 86% 37 30.11 1019.9
02 05:53 NE 5 10.00 Overcast OVC090 41 36 82% 38 30.1 1019.6
02 04:53 E 8 10.00 Partly Cloudy SCT080 42.1 36 79% 38 30.09 1019.3
02 03:53 NE 6 10.00 Mostly Cloudy BKN090 39 36 89% 35 30.08 1018.9
02 02:53 N 3 10.00 Overcast OVC090 42.1 37.9 85% 30.07 1018.4
02 01:53 N 3 10.00 Overcast OVC090 43 39 86% 30.08 1018.6
02 00:53 Calm 10.00 A Few Clouds FEW090 39 36 53.1 37.9 89% 30.08 1018.7
01 23:53 Calm 10.00 Fair CLR 41 37.9 89% 30.08 1018.8
01 22:53 N 3 10.00 Mostly Cloudy BKN100 42.1 39 89% 30.08 1018.7
01 21:53 Calm 10.00 Partly Cloudy SCT085 43 39 86% 30.07 1018.4
01 20:53 N 3 10.00 Mostly Cloudy BKN095 46 37.9 73% 30.04 1017.6
01 19:53 NE 5 10.00 A Few Clouds FEW100 48.9 37 64% 48 30.02 1016.8
01 18:53 NE 12 10.00 Overcast FEW055 BKN080 OVC110 53.1 37.9 61 52 57% 30.01 1016.5 0.01
01 17:53 N 10 10.00 Mostly Cloudy SCT075 BKN090 55.9 36 47% 30.01 1016.5
01 16:53 Vrbl 6 8.00 Light Rain SCT041 OVC065 52 36 55% 30.01 1016.6
01 15:53 Calm 10.00 Mostly Cloudy FEW033 SCT049 BKN060 55 37.9 53% 30.02 1016.6 0.01 0.01
01 14:53 NE 15 G 21 10.00 Overcast BKN070 OVC080 55.9 33.1 42% 30.02 1016.6
01 13:53 N 6 9.00 Overcast BKN070 OVC090 55.9 30.9 39% 30.02 1016.8
01 12:53 E 3 10.00 Mostly Cloudy BKN070 BKN080 BKN100 55 33.1 55.9 37 44% 30.03 1017.0
01 11:53 Vrbl 3 10.00 A Few Clouds FEW100 53.1 32 45% 30.04 1017.3
01 10:53 S 5 10.00 Fair CLR 52 32 47% 30.05 1017.9
01 09:53 E 5 10.00 Fair CLR 51.1 28.9 43% 30.05 1017.8
01 08:53 Calm 10.00 Mostly Cloudy BKN070 46.9 33.1 59% 30.06 1018.1
01 07:53 Calm 10.00 Partly Cloudy SCT070 42.1 32 68% 30.06 1018.2
01 06:53 Calm 10.00 Fair CLR 37 30.9 44.1 33.1 79% 30.04 1017.7
01 05:53 N 3 10.00 Fair CLR 36 28.9 76% 30.04 1017.4
01 04:53 NW 6 10.00 Fair CLR 37 28.9 73% 33 30.04 1017.3
01 03:53 NW 5 10.00 Fair CLR 39 28.9 67% 36 30.03 1017.3
01 02:53 NW 6 10.00 Fair CLR 39.9 28.9 65% 36 30.02 1016.9
01 01:53 NW 5 10.00 Fair CLR 41 30 65% 38 30.03 1017.0
01 00:53 NW 6 10.00 Fair CLR 44.1 30 55 44.1 58% 41 30.03 1017.0
30 23:53 NW 8 10.00 Fair CLR 45 30.9 58% 41 30.01 1016.5
Date Time (cdt) Wind (mph) Vis. (mi.) Weather Sky Cond. Air Dwpt Max. Min. Relative Humidity Wind Chill (°F) Heat Index (°F) altimeter (in) sea level (mb) 1 hr 3 hr 6 hr
6 hour
Temperature (ºF) Pressure Precipitation (in)